Morgantown Municipal Walter L. Bill Hart Field
KMGW : rendu visible

Aérodrome :











RETROUVEZ-NOUS SUR...

 
LOGIN :

S'inscrire | Disclaimer

   EN    FR    IT 

 









Légende :    VFR   VFR Marginal   IFR   IFR Intensif   IFR Très Intensif
Visi : 
Plafond : 
>= 8 km
>= 3000ft
5 à 8 km
1000 à 3000 ft
1500m à 5 km
500 à 1000 ft
800 à 1500m
200 à 500 ft
< 800m
< 200 ft
Symboles :   Orages  Brouillard  Fortes neiges  Fortes précipitations  Vent > 20 kt






- Altitude de l'aérodrome : 1248 ft
- Code IATA : MGW


KMGW - Morgantown Municipal Walter L. Bill Hart Field

DERNIER METAR :
  • 222253Z 00000KT 10SM BKN033 04/M01 A3009 RMK AO2 SLP192 T00441011

METARs EXPIRÉS :
  • 222153Z 31004KT 10SM SCT030 05/M01 A3006 RMK AO2 SLP183 T00501011
  • 222053Z VRB04KT 10SM SCT028 06/01 A3003 RMK AO2 SLP173 T00610006 53009

TAF KMGW
Valide du 22 à 20h jusqu'au 23 à 18h UTC


221959Z 2220/2318 VRB05KT P6SM SCT250
FM231400 10004KT P6SM BKN100



MET'MAP, la Météo Aéronautique d'un coup d'oeil ! - Copyright ORBIFLY Décembre 2007 - Disclaimer

ORBIFLY MET'MAP TEAM :

Programmation & Développement : Alexandra Zaïnal
Conception & Développement : Baudouin d'Aumeries
Co-Programmation & Développement : Marc-Olivier Méhu
Soutien technique & logistique : Manuel Goepfert

Contact : metmap@orbifly.com




SOURCES & CREDITS :

   NOAA       Earth
Advisory